sensor_id;sensor_type;location;lat;lon;timestamp;P1;durP1;ratioP1;P2;durP2;ratioP2
69534;SDS011;56754;51.568;5.048;2023-08-06T00:00:18;3.20;;;1.37;;
69534;SDS011;56754;51.568;5.048;2023-08-06T00:02:43;3.93;;;1.30;;
69534;SDS011;56754;51.568;5.048;2023-08-06T00:05:08;3.03;;;1.30;;
69534;SDS011;56754;51.568;5.048;2023-08-06T00:07:33;3.57;;;1.40;;
69534;SDS011;56754;51.568;5.048;2023-08-06T00:09:59;4.40;;;1.50;;
69534;SDS011;56754;51.568;5.048;2023-08-06T00:12:24;3.20;;;1.23;;
69534;SDS011;56754;51.568;5.048;2023-08-06T00:14:50;3.60;;;1.30;;
69534;SDS011;56754;51.568;5.048;2023-08-06T00:17:16;4.17;;;1.27;;
69534;SDS011;56754;51.568;5.048;2023-08-06T00:19:41;3.33;;;1.30;;
69534;SDS011;56754;51.568;5.048;2023-08-06T00:22:06;3.60;;;1.20;;
69534;SDS011;56754;51.568;5.048;2023-08-06T00:24:31;3.37;;;1.20;;
69534;SDS011;56754;51.568;5.048;2023-08-06T00:26:57;2.80;;;1.13;;
69534;SDS011;56754;51.568;5.048;2023-08-06T00:29:22;3.60;;;1.30;;
69534;SDS011;56754;51.568;5.048;2023-08-06T00:31:47;2.63;;;1.07;;
69534;SDS011;56754;51.568;5.048;2023-08-06T00:34:13;4.73;;;1.30;;
69534;SDS011;56754;51.568;5.048;2023-08-06T00:36:38;4.03;;;1.20;;
69534;SDS011;56754;51.568;5.048;2023-08-06T00:39:03;2.83;;;1.20;;
69534;SDS011;56754;51.568;5.048;2023-08-06T00:41:28;2.90;;;1.27;;
69534;SDS011;56754;51.568;5.048;2023-08-06T00:43:54;2.97;;;1.30;;
69534;SDS011;56754;51.568;5.048;2023-08-06T00:46:19;2.90;;;1.20;;
69534;SDS011;56754;51.568;5.048;2023-08-06T00:48:45;3.10;;;1.20;;
69534;SDS011;56754;51.568;5.048;2023-08-06T00:51:11;3.25;;;1.17;;
69534;SDS011;56754;51.568;5.048;2023-08-06T00:53:37;4.18;;;1.35;;
69534;SDS011;56754;51.568;5.048;2023-08-06T00:56:05;3.13;;;1.20;;
69534;SDS011;56754;51.568;5.048;2023-08-06T00:58:32;3.08;;;1.30;;
69534;SDS011;56754;51.568;5.048;2023-08-06T01:00:57;3.07;;;1.00;;
69534;SDS011;56754;51.568;5.048;2023-08-06T01:03:23;3.37;;;1.30;;
69534;SDS011;56754;51.568;5.048;2023-08-06T01:05:48;3.83;;;1.33;;
69534;SDS011;56754;51.568;5.048;2023-08-06T01:08:17;4.65;;;1.30;;
69534;SDS011;56754;51.568;5.048;2023-08-06T01:14:28;3.72;;;1.20;;
69534;SDS011;56754;51.568;5.048;2023-08-06T01:16:59;3.88;;;1.20;;
69534;SDS011;56754;51.568;5.048;2023-08-06T01:19:26;4.05;;;1.58;;
69534;SDS011;56754;51.568;5.048;2023-08-06T01:21:51;3.40;;;1.40;;
69534;SDS011;56754;51.568;5.048;2023-08-06T01:24:16;3.13;;;1.20;;
69534;SDS011;56754;51.568;5.048;2023-08-06T01:26:42;3.30;;;1.27;;
69534;SDS011;56754;51.568;5.048;2023-08-06T01:31:48;3.30;;;1.15;;
69534;SDS011;56754;51.568;5.048;2023-08-06T01:34:22;3.20;;;1.20;;
69534;SDS011;56754;51.568;5.048;2023-08-06T01:36:50;3.90;;;1.37;;
69534;SDS011;56754;51.568;5.048;2023-08-06T01:39:15;3.22;;;1.23;;
69534;SDS011;56754;51.568;5.048;2023-08-06T01:41:41;3.13;;;1.07;;
69534;SDS011;56754;51.568;5.048;2023-08-06T01:44:06;2.87;;;1.10;;
69534;SDS011;56754;51.568;5.048;2023-08-06T01:46:32;3.57;;;1.20;;
69534;SDS011;56754;51.568;5.048;2023-08-06T01:48:58;3.47;;;1.30;;
69534;SDS011;56754;51.568;5.048;2023-08-06T01:51:23;3.80;;;1.48;;
69534;SDS011;56754;51.568;5.048;2023-08-06T01:53:48;5.27;;;1.27;;
69534;SDS011;56754;51.568;5.048;2023-08-06T01:56:13;3.33;;;1.30;;
69534;SDS011;56754;51.568;5.048;2023-08-06T01:58:39;2.67;;;1.10;;
69534;SDS011;56754;51.568;5.048;2023-08-06T02:01:04;3.57;;;1.43;;
69534;SDS011;56754;51.568;5.048;2023-08-06T02:03:29;2.83;;;1.20;;
69534;SDS011;56754;51.568;5.048;2023-08-06T02:05:55;4.13;;;1.30;;
69534;SDS011;56754;51.568;5.048;2023-08-06T02:08:20;3.13;;;1.27;;
69534;SDS011;56754;51.568;5.048;2023-08-06T02:10:45;3.53;;;1.40;;
69534;SDS011;56754;51.568;5.048;2023-08-06T02:13:10;5.57;;;1.45;;
69534;SDS011;56754;51.568;5.048;2023-08-06T02:15:41;4.13;;;1.30;;
69534;SDS011;56754;51.568;5.048;2023-08-06T02:18:07;3.45;;;1.10;;
69534;SDS011;56754;51.568;5.048;2023-08-06T02:20:32;4.27;;;1.20;;
69534;SDS011;56754;51.568;5.048;2023-08-06T02:22:57;3.40;;;1.30;;
69534;SDS011;56754;51.568;5.048;2023-08-06T02:25:23;3.80;;;1.40;;
69534;SDS011;56754;51.568;5.048;2023-08-06T02:27:49;3.60;;;1.10;;
69534;SDS011;56754;51.568;5.048;2023-08-06T02:30:14;3.60;;;1.30;;
69534;SDS011;56754;51.568;5.048;2023-08-06T02:32:39;3.37;;;1.30;;
69534;SDS011;56754;51.568;5.048;2023-08-06T02:35:04;2.87;;;1.10;;
69534;SDS011;56754;51.568;5.048;2023-08-06T02:37:32;3.00;;;1.40;;
69534;SDS011;56754;51.568;5.048;2023-08-06T02:39:58;2.70;;;1.20;;
69534;SDS011;56754;51.568;5.048;2023-08-06T02:42:23;3.60;;;1.20;;
69534;SDS011;56754;51.568;5.048;2023-08-06T02:44:49;3.73;;;1.40;;
69534;SDS011;56754;51.568;5.048;2023-08-06T02:47:14;2.87;;;1.20;;
69534;SDS011;56754;51.568;5.048;2023-08-06T02:49:39;3.30;;;1.20;;
69534;SDS011;56754;51.568;5.048;2023-08-06T02:52:05;4.07;;;1.20;;
69534;SDS011;56754;51.568;5.048;2023-08-06T02:54:30;3.00;;;1.10;;
69534;SDS011;56754;51.568;5.048;2023-08-06T02:56:56;3.23;;;1.17;;
69534;SDS011;56754;51.568;5.048;2023-08-06T02:59:21;2.83;;;1.13;;
69534;SDS011;56754;51.568;5.048;2023-08-06T03:01:46;3.40;;;1.20;;
69534;SDS011;56754;51.568;5.048;2023-08-06T03:04:12;3.40;;;1.27;;
69534;SDS011;56754;51.568;5.048;2023-08-06T03:06:37;2.67;;;1.20;;
69534;SDS011;56754;51.568;5.048;2023-08-06T03:09:02;3.87;;;1.30;;
69534;SDS011;56754;51.568;5.048;2023-08-06T03:11:27;3.10;;;1.30;;
69534;SDS011;56754;51.568;5.048;2023-08-06T03:13:53;3.03;;;1.20;;
69534;SDS011;56754;51.568;5.048;2023-08-06T03:16:18;4.67;;;1.40;;
69534;SDS011;56754;51.568;5.048;2023-08-06T03:18:43;3.30;;;1.30;;
69534;SDS011;56754;51.568;5.048;2023-08-06T03:21:09;3.97;;;1.40;;
69534;SDS011;56754;51.568;5.048;2023-08-06T03:23:34;3.63;;;1.50;;
69534;SDS011;56754;51.568;5.048;2023-08-06T03:26:02;4.30;;;1.25;;
69534;SDS011;56754;51.568;5.048;2023-08-06T03:28:28;3.83;;;1.30;;
69534;SDS011;56754;51.568;5.048;2023-08-06T03:31:02;2.60;;;1.08;;
69534;SDS011;56754;51.568;5.048;2023-08-06T03:33:28;3.50;;;1.40;;
69534;SDS011;56754;51.568;5.048;2023-08-06T03:35:54;3.60;;;1.40;;
69534;SDS011;56754;51.568;5.048;2023-08-06T03:38:19;3.50;;;1.37;;
69534;SDS011;56754;51.568;5.048;2023-08-06T03:40:45;2.50;;;1.10;;
69534;SDS011;56754;51.568;5.048;2023-08-06T03:43:11;3.30;;;1.05;;
69534;SDS011;56754;51.568;5.048;2023-08-06T03:45:36;3.03;;;1.23;;
69534;SDS011;56754;51.568;5.048;2023-08-06T03:48:01;3.60;;;1.33;;
69534;SDS011;56754;51.568;5.048;2023-08-06T03:50:27;3.90;;;1.40;;
69534;SDS011;56754;51.568;5.048;2023-08-06T03:52:52;3.60;;;1.40;;
69534;SDS011;56754;51.568;5.048;2023-08-06T03:55:17;3.88;;;1.55;;
69534;SDS011;56754;51.568;5.048;2023-08-06T03:57:42;3.63;;;1.27;;
69534;SDS011;56754;51.568;5.048;2023-08-06T04:00:08;4.20;;;1.60;;
69534;SDS011;56754;51.568;5.048;2023-08-06T04:02:33;3.73;;;1.30;;
69534;SDS011;56754;51.568;5.048;2023-08-06T04:05:00;3.33;;;1.30;;
69534;SDS011;56754;51.568;5.048;2023-08-06T04:07:26;3.87;;;1.47;;
69534;SDS011;56754;51.568;5.048;2023-08-06T04:09:54;3.53;;;1.30;;
69534;SDS011;56754;51.568;5.048;2023-08-06T04:12:22;2.78;;;1.10;;
69534;SDS011;56754;51.568;5.048;2023-08-06T04:14:47;3.30;;;1.30;;
69534;SDS011;56754;51.568;5.048;2023-08-06T04:17:13;3.33;;;1.20;;
69534;SDS011;56754;51.568;5.048;2023-08-06T04:19:38;3.78;;;1.33;;
69534;SDS011;56754;51.568;5.048;2023-08-06T04:22:03;2.83;;;1.10;;
69534;SDS011;56754;51.568;5.048;2023-08-06T04:24:28;3.30;;;1.40;;
69534;SDS011;56754;51.568;5.048;2023-08-06T04:26:54;3.60;;;1.33;;
69534;SDS011;56754;51.568;5.048;2023-08-06T04:29:19;3.10;;;1.40;;
69534;SDS011;56754;51.568;5.048;2023-08-06T04:31:44;3.30;;;1.50;;
69534;SDS011;56754;51.568;5.048;2023-08-06T04:34:09;3.90;;;1.47;;
69534;SDS011;56754;51.568;5.048;2023-08-06T04:36:35;3.53;;;1.50;;
69534;SDS011;56754;51.568;5.048;2023-08-06T04:39:00;3.53;;;1.60;;
69534;SDS011;56754;51.568;5.048;2023-08-06T04:41:25;4.10;;;1.40;;
69534;SDS011;56754;51.568;5.048;2023-08-06T04:43:51;4.27;;;1.70;;
69534;SDS011;56754;51.568;5.048;2023-08-06T04:46:16;3.90;;;1.60;;
69534;SDS011;56754;51.568;5.048;2023-08-06T04:48:41;3.40;;;1.30;;
69534;SDS011;56754;51.568;5.048;2023-08-06T04:51:06;3.83;;;1.70;;
69534;SDS011;56754;51.568;5.048;2023-08-06T04:53:32;4.67;;;1.70;;
69534;SDS011;56754;51.568;5.048;2023-08-06T04:55:57;2.77;;;1.10;;
69534;SDS011;56754;51.568;5.048;2023-08-06T04:58:22;3.27;;;1.47;;
69534;SDS011;56754;51.568;5.048;2023-08-06T05:00:47;3.70;;;1.40;;
69534;SDS011;56754;51.568;5.048;2023-08-06T05:03:13;4.23;;;1.40;;
69534;SDS011;56754;51.568;5.048;2023-08-06T05:05:39;3.20;;;1.20;;
69534;SDS011;56754;51.568;5.048;2023-08-06T05:08:05;2.90;;;1.20;;
69534;SDS011;56754;51.568;5.048;2023-08-06T05:10:30;3.40;;;1.40;;
69534;SDS011;56754;51.568;5.048;2023-08-06T05:12:56;2.95;;;1.13;;
69534;SDS011;56754;51.568;5.048;2023-08-06T05:15:21;3.10;;;1.40;;
69534;SDS011;56754;51.568;5.048;2023-08-06T05:17:46;2.70;;;1.00;;
69534;SDS011;56754;51.568;5.048;2023-08-06T05:20:12;3.83;;;1.20;;
69534;SDS011;56754;51.568;5.048;2023-08-06T05:22:37;3.67;;;1.40;;
69534;SDS011;56754;51.568;5.048;2023-08-06T05:25:02;3.30;;;1.30;;
69534;SDS011;56754;51.568;5.048;2023-08-06T05:27:28;3.63;;;1.30;;
69534;SDS011;56754;51.568;5.048;2023-08-06T05:29:54;2.53;;;1.20;;
69534;SDS011;56754;51.568;5.048;2023-08-06T05:32:20;3.17;;;1.50;;
69534;SDS011;56754;51.568;5.048;2023-08-06T05:34:45;3.83;;;1.60;;
69534;SDS011;56754;51.568;5.048;2023-08-06T05:37:10;3.47;;;1.20;;
69534;SDS011;56754;51.568;5.048;2023-08-06T05:39:36;3.20;;;1.40;;
69534;SDS011;56754;51.568;5.048;2023-08-06T05:42:01;2.87;;;1.13;;
69534;SDS011;56754;51.568;5.048;2023-08-06T05:44:26;4.43;;;1.00;;
69534;SDS011;56754;51.568;5.048;2023-08-06T05:46:52;2.70;;;0.90;;
69534;SDS011;56754;51.568;5.048;2023-08-06T05:49:17;2.90;;;1.07;;
69534;SDS011;56754;51.568;5.048;2023-08-06T05:51:42;3.47;;;0.90;;
69534;SDS011;56754;51.568;5.048;2023-08-06T05:54:07;3.80;;;1.27;;
69534;SDS011;56754;51.568;5.048;2023-08-06T05:56:33;2.67;;;1.10;;
69534;SDS011;56754;51.568;5.048;2023-08-06T05:58:58;3.40;;;1.10;;
69534;SDS011;56754;51.568;5.048;2023-08-06T06:01:23;3.43;;;1.23;;
69534;SDS011;56754;51.568;5.048;2023-08-06T06:03:49;4.03;;;1.50;;
69534;SDS011;56754;51.568;5.048;2023-08-06T06:06:14;3.10;;;1.20;;
69534;SDS011;56754;51.568;5.048;2023-08-06T06:08:39;5.33;;;1.37;;
69534;SDS011;56754;51.568;5.048;2023-08-06T06:11:04;3.93;;;1.40;;
69534;SDS011;56754;51.568;5.048;2023-08-06T06:13:30;5.03;;;1.60;;
69534;SDS011;56754;51.568;5.048;2023-08-06T06:15:55;3.83;;;1.23;;
69534;SDS011;56754;51.568;5.048;2023-08-06T06:18:20;3.70;;;1.40;;
69534;SDS011;56754;51.568;5.048;2023-08-06T06:20:46;3.10;;;1.10;;
69534;SDS011;56754;51.568;5.048;2023-08-06T06:23:11;4.80;;;1.57;;
69534;SDS011;56754;51.568;5.048;2023-08-06T06:25:41;3.97;;;1.50;;
69534;SDS011;56754;51.568;5.048;2023-08-06T06:28:07;3.53;;;1.35;;
69534;SDS011;56754;51.568;5.048;2023-08-06T06:30:32;3.93;;;1.17;;
69534;SDS011;56754;51.568;5.048;2023-08-06T06:32:57;4.60;;;1.40;;
69534;SDS011;56754;51.568;5.048;2023-08-06T06:35:23;5.65;;;1.60;;
69534;SDS011;56754;51.568;5.048;2023-08-06T06:37:48;4.57;;;1.30;;
69534;SDS011;56754;51.568;5.048;2023-08-06T06:40:13;4.00;;;1.00;;
69534;SDS011;56754;51.568;5.048;2023-08-06T06:42:39;3.97;;;1.43;;
69534;SDS011;56754;51.568;5.048;2023-08-06T06:45:04;4.07;;;1.40;;
69534;SDS011;56754;51.568;5.048;2023-08-06T06:47:30;6.50;;;1.70;;
69534;SDS011;56754;51.568;5.048;2023-08-06T06:49:55;4.17;;;1.20;;
69534;SDS011;56754;51.568;5.048;2023-08-06T06:52:20;3.73;;;1.40;;
69534;SDS011;56754;51.568;5.048;2023-08-06T06:54:45;4.00;;;1.50;;
69534;SDS011;56754;51.568;5.048;2023-08-06T06:57:11;4.13;;;1.27;;
69534;SDS011;56754;51.568;5.048;2023-08-06T06:59:36;4.37;;;1.60;;
69534;SDS011;56754;51.568;5.048;2023-08-06T07:02:01;4.80;;;1.47;;
69534;SDS011;56754;51.568;5.048;2023-08-06T07:04:27;4.43;;;1.57;;
69534;SDS011;56754;51.568;5.048;2023-08-06T07:06:52;4.43;;;1.48;;
69534;SDS011;56754;51.568;5.048;2023-08-06T07:09:17;4.17;;;1.43;;
69534;SDS011;56754;51.568;5.048;2023-08-06T07:11:42;5.37;;;1.50;;
69534;SDS011;56754;51.568;5.048;2023-08-06T07:14:08;5.03;;;1.40;;
69534;SDS011;56754;51.568;5.048;2023-08-06T07:16:33;3.93;;;1.40;;
69534;SDS011;56754;51.568;5.048;2023-08-06T07:18:58;4.30;;;1.40;;
69534;SDS011;56754;51.568;5.048;2023-08-06T07:21:23;5.53;;;1.53;;
69534;SDS011;56754;51.568;5.048;2023-08-06T07:23:49;4.30;;;1.47;;
69534;SDS011;56754;51.568;5.048;2023-08-06T07:26:14;4.77;;;1.50;;
69534;SDS011;56754;51.568;5.048;2023-08-06T07:28:39;4.78;;;1.45;;
69534;SDS011;56754;51.568;5.048;2023-08-06T07:31:05;4.70;;;1.60;;
69534;SDS011;56754;51.568;5.048;2023-08-06T07:33:30;4.07;;;1.50;;
69534;SDS011;56754;51.568;5.048;2023-08-06T07:35:55;3.80;;;1.17;;
69534;SDS011;56754;51.568;5.048;2023-08-06T07:38:20;3.57;;;1.20;;
69534;SDS011;56754;51.568;5.048;2023-08-06T07:40:46;4.27;;;1.20;;
69534;SDS011;56754;51.568;5.048;2023-08-06T07:43:11;4.93;;;1.10;;
69534;SDS011;56754;51.568;5.048;2023-08-06T07:45:36;5.10;;;1.43;;
69534;SDS011;56754;51.568;5.048;2023-08-06T07:48:02;3.43;;;1.10;;
69534;SDS011;56754;51.568;5.048;2023-08-06T07:50:27;4.53;;;1.20;;
69534;SDS011;56754;51.568;5.048;2023-08-06T07:52:53;4.07;;;1.50;;
69534;SDS011;56754;51.568;5.048;2023-08-06T07:55:18;4.10;;;1.10;;
69534;SDS011;56754;51.568;5.048;2023-08-06T07:57:43;4.03;;;1.20;;
69534;SDS011;56754;51.568;5.048;2023-08-06T08:00:09;5.40;;;1.33;;
69534;SDS011;56754;51.568;5.048;2023-08-06T08:02:34;3.70;;;1.30;;
69534;SDS011;56754;51.568;5.048;2023-08-06T08:05:00;3.65;;;1.20;;
69534;SDS011;56754;51.568;5.048;2023-08-06T08:07:25;3.63;;;1.00;;
69534;SDS011;56754;51.568;5.048;2023-08-06T08:09:50;3.87;;;1.20;;
69534;SDS011;56754;51.568;5.048;2023-08-06T08:12:16;3.63;;;1.10;;
69534;SDS011;56754;51.568;5.048;2023-08-06T08:14:41;4.03;;;1.10;;
69534;SDS011;56754;51.568;5.048;2023-08-06T08:17:06;3.40;;;1.10;;
69534;SDS011;56754;51.568;5.048;2023-08-06T08:19:32;5.00;;;1.30;;
69534;SDS011;56754;51.568;5.048;2023-08-06T08:21:57;3.03;;;1.02;;
69534;SDS011;56754;51.568;5.048;2023-08-06T08:24:23;3.70;;;1.13;;
69534;SDS011;56754;51.568;5.048;2023-08-06T08:26:52;4.43;;;1.20;;
69534;SDS011;56754;51.568;5.048;2023-08-06T08:29:19;3.33;;;0.95;;
69534;SDS011;56754;51.568;5.048;2023-08-06T08:31:45;5.43;;;1.40;;
69534;SDS011;56754;51.568;5.048;2023-08-06T08:34:10;4.63;;;1.30;;
69534;SDS011;56754;51.568;5.048;2023-08-06T08:36:36;5.67;;;1.27;;
69534;SDS011;56754;51.568;5.048;2023-08-06T08:39:01;3.90;;;1.37;;
69534;SDS011;56754;51.568;5.048;2023-08-06T08:41:28;4.57;;;1.38;;
69534;SDS011;56754;51.568;5.048;2023-08-06T08:43:55;6.17;;;1.33;;
69534;SDS011;56754;51.568;5.048;2023-08-06T08:46:21;5.00;;;1.50;;
69534;SDS011;56754;51.568;5.048;2023-08-06T08:48:48;3.60;;;1.23;;
69534;SDS011;56754;51.568;5.048;2023-08-06T08:51:15;4.30;;;1.23;;
69534;SDS011;56754;51.568;5.048;2023-08-06T08:53:42;3.53;;;1.02;;
69534;SDS011;56754;51.568;5.048;2023-08-06T08:56:09;3.70;;;1.20;;
69534;SDS011;56754;51.568;5.048;2023-08-06T08:58:37;5.43;;;1.13;;
69534;SDS011;56754;51.568;5.048;2023-08-06T09:01:03;4.33;;;1.30;;
69534;SDS011;56754;51.568;5.048;2023-08-06T09:03:29;4.13;;;1.00;;
69534;SDS011;56754;51.568;5.048;2023-08-06T09:05:55;4.80;;;1.30;;
69534;SDS011;56754;51.568;5.048;2023-08-06T09:08:23;4.68;;;1.23;;
69534;SDS011;56754;51.568;5.048;2023-08-06T09:10:54;4.95;;;1.20;;
69534;SDS011;56754;51.568;5.048;2023-08-06T09:13:21;3.92;;;1.17;;
69534;SDS011;56754;51.568;5.048;2023-08-06T09:15:46;3.13;;;1.00;;
69534;SDS011;56754;51.568;5.048;2023-08-06T09:18:11;5.30;;;1.00;;
69534;SDS011;56754;51.568;5.048;2023-08-06T09:20:38;5.95;;;1.30;;
69534;SDS011;56754;51.568;5.048;2023-08-06T09:23:07;5.53;;;1.15;;
69534;SDS011;56754;51.568;5.048;2023-08-06T09:25:33;5.47;;;1.00;;
69534;SDS011;56754;51.568;5.048;2023-08-06T09:27:58;3.23;;;1.00;;
69534;SDS011;56754;51.568;5.048;2023-08-06T09:30:30;5.03;;;1.07;;
69534;SDS011;56754;51.568;5.048;2023-08-06T09:32:57;4.03;;;0.97;;
69534;SDS011;56754;51.568;5.048;2023-08-06T09:35:22;4.35;;;1.00;;
69534;SDS011;56754;51.568;5.048;2023-08-06T09:37:47;4.53;;;0.87;;
69534;SDS011;56754;51.568;5.048;2023-08-06T09:40:26;5.80;;;0.93;;
69534;SDS011;56754;51.568;5.048;2023-08-06T09:42:52;4.00;;;1.00;;
69534;SDS011;56754;51.568;5.048;2023-08-06T09:45:17;3.80;;;0.90;;
69534;SDS011;56754;51.568;5.048;2023-08-06T09:47:43;6.03;;;1.05;;
69534;SDS011;56754;51.568;5.048;2023-08-06T09:50:15;5.63;;;1.00;;
69534;SDS011;56754;51.568;5.048;2023-08-06T09:52:44;3.00;;;0.90;;
69534;SDS011;56754;51.568;5.048;2023-08-06T09:55:13;4.03;;;0.97;;
69534;SDS011;56754;51.568;5.048;2023-08-06T09:57:40;4.47;;;1.00;;
69534;SDS011;56754;51.568;5.048;2023-08-06T10:00:06;3.53;;;0.82;;
69534;SDS011;56754;51.568;5.048;2023-08-06T10:02:32;5.13;;;0.93;;
69534;SDS011;56754;51.568;5.048;2023-08-06T10:04:59;2.88;;;0.80;;
69534;SDS011;56754;51.568;5.048;2023-08-06T10:07:25;5.05;;;1.10;;
69534;SDS011;56754;51.568;5.048;2023-08-06T10:09:50;4.50;;;0.80;;
69534;SDS011;56754;51.568;5.048;2023-08-06T10:12:15;3.57;;;0.90;;
69534;SDS011;56754;51.568;5.048;2023-08-06T10:14:42;3.55;;;0.88;;
69534;SDS011;56754;51.568;5.048;2023-08-06T10:17:08;3.93;;;0.87;;
69534;SDS011;56754;51.568;5.048;2023-08-06T10:19:33;4.20;;;1.00;;
69534;SDS011;56754;51.568;5.048;2023-08-06T10:24:51;5.33;;;1.00;;
69534;SDS011;56754;51.568;5.048;2023-08-06T10:29:46;3.83;;;1.10;;
69534;SDS011;56754;51.568;5.048;2023-08-06T10:32:11;3.50;;;1.00;;
69534;SDS011;56754;51.568;5.048;2023-08-06T10:37:21;3.75;;;1.10;;
69534;SDS011;56754;51.568;5.048;2023-08-06T10:39:52;3.47;;;0.87;;
69534;SDS011;56754;51.568;5.048;2023-08-06T10:42:27;4.47;;;1.25;;
69534;SDS011;56754;51.568;5.048;2023-08-06T10:47:37;3.72;;;1.20;;
69534;SDS011;56754;51.568;5.048;2023-08-06T10:50:03;3.43;;;1.00;;
69534;SDS011;56754;51.568;5.048;2023-08-06T10:52:28;3.70;;;1.05;;
69534;SDS011;56754;51.568;5.048;2023-08-06T10:54:55;5.07;;;1.00;;
69534;SDS011;56754;51.568;5.048;2023-08-06T10:57:20;4.30;;;1.08;;
69534;SDS011;56754;51.568;5.048;2023-08-06T10:59:45;5.27;;;1.20;;
69534;SDS011;56754;51.568;5.048;2023-08-06T11:02:10;2.20;;;0.80;;
69534;SDS011;56754;51.568;5.048;2023-08-06T11:04:36;3.73;;;0.80;;
69534;SDS011;56754;51.568;5.048;2023-08-06T11:07:01;2.60;;;0.90;;
69534;SDS011;56754;51.568;5.048;2023-08-06T11:09:26;3.40;;;1.13;;
69534;SDS011;56754;51.568;5.048;2023-08-06T11:11:52;3.08;;;0.70;;
69534;SDS011;56754;51.568;5.048;2023-08-06T11:14:17;3.47;;;0.80;;
69534;SDS011;56754;51.568;5.048;2023-08-06T11:16:42;2.93;;;0.73;;
69534;SDS011;56754;51.568;5.048;2023-08-06T11:19:07;4.03;;;0.87;;
69534;SDS011;56754;51.568;5.048;2023-08-06T11:21:33;3.50;;;0.60;;
69534;SDS011;56754;51.568;5.048;2023-08-06T11:23:58;3.60;;;1.03;;
69534;SDS011;56754;51.568;5.048;2023-08-06T11:26:24;2.67;;;0.77;;
69534;SDS011;56754;51.568;5.048;2023-08-06T11:28:49;3.07;;;1.00;;
69534;SDS011;56754;51.568;5.048;2023-08-06T11:31:21;3.40;;;0.70;;
69534;SDS011;56754;51.568;5.048;2023-08-06T11:33:48;2.92;;;0.68;;
69534;SDS011;56754;51.568;5.048;2023-08-06T11:36:15;2.90;;;0.80;;
69534;SDS011;56754;51.568;5.048;2023-08-06T11:38:40;2.03;;;0.70;;
69534;SDS011;56754;51.568;5.048;2023-08-06T11:41:06;2.97;;;0.80;;
69534;SDS011;56754;51.568;5.048;2023-08-06T11:43:31;3.95;;;0.80;;
69534;SDS011;56754;51.568;5.048;2023-08-06T11:45:57;3.13;;;0.70;;
69534;SDS011;56754;51.568;5.048;2023-08-06T11:48:22;4.13;;;0.80;;
69534;SDS011;56754;51.568;5.048;2023-08-06T11:50:47;4.85;;;0.98;;
69534;SDS011;56754;51.568;5.048;2023-08-06T11:53:13;3.33;;;0.97;;
69534;SDS011;56754;51.568;5.048;2023-08-06T11:55:39;4.15;;;1.30;;
69534;SDS011;56754;51.568;5.048;2023-08-06T11:58:04;4.00;;;1.40;;
69534;SDS011;56754;51.568;5.048;2023-08-06T12:00:30;4.33;;;1.17;;
69534;SDS011;56754;51.568;5.048;2023-08-06T12:02:55;3.00;;;0.93;;
69534;SDS011;56754;51.568;5.048;2023-08-06T12:05:21;5.28;;;1.13;;
69534;SDS011;56754;51.568;5.048;2023-08-06T12:07:49;3.45;;;1.02;;
69534;SDS011;56754;51.568;5.048;2023-08-06T12:10:16;5.27;;;1.00;;
69534;SDS011;56754;51.568;5.048;2023-08-06T12:12:41;3.90;;;0.80;;
69534;SDS011;56754;51.568;5.048;2023-08-06T12:15:07;3.83;;;0.83;;
69534;SDS011;56754;51.568;5.048;2023-08-06T12:17:34;3.55;;;1.02;;
69534;SDS011;56754;51.568;5.048;2023-08-06T12:19:59;2.85;;;0.80;;
69534;SDS011;56754;51.568;5.048;2023-08-06T12:22:24;3.87;;;0.80;;
69534;SDS011;56754;51.568;5.048;2023-08-06T12:24:50;2.77;;;0.70;;
69534;SDS011;56754;51.568;5.048;2023-08-06T12:27:15;3.77;;;0.77;;
69534;SDS011;56754;51.568;5.048;2023-08-06T12:29:41;3.57;;;0.90;;
69534;SDS011;56754;51.568;5.048;2023-08-06T12:32:08;4.32;;;0.82;;
69534;SDS011;56754;51.568;5.048;2023-08-06T12:34:33;2.38;;;0.50;;
69534;SDS011;56754;51.568;5.048;2023-08-06T12:36:58;2.63;;;0.80;;
69534;SDS011;56754;51.568;5.048;2023-08-06T12:39:24;3.07;;;0.80;;
69534;SDS011;56754;51.568;5.048;2023-08-06T12:41:49;2.43;;;0.80;;
69534;SDS011;56754;51.568;5.048;2023-08-06T12:44:14;2.47;;;0.57;;
69534;SDS011;56754;51.568;5.048;2023-08-06T12:46:40;2.90;;;1.00;;
69534;SDS011;56754;51.568;5.048;2023-08-06T12:49:06;3.20;;;0.70;;
69534;SDS011;56754;51.568;5.048;2023-08-06T12:51:32;4.65;;;0.98;;
69534;SDS011;56754;51.568;5.048;2023-08-06T12:53:57;4.00;;;0.83;;
69534;SDS011;56754;51.568;5.048;2023-08-06T12:56:22;3.30;;;0.50;;
69534;SDS011;56754;51.568;5.048;2023-08-06T12:58:47;3.53;;;0.73;;
69534;SDS011;56754;51.568;5.048;2023-08-06T13:01:13;2.63;;;0.60;;
69534;SDS011;56754;51.568;5.048;2023-08-06T13:03:38;2.50;;;0.80;;
69534;SDS011;56754;51.568;5.048;2023-08-06T13:06:03;2.53;;;0.77;;
69534;SDS011;56754;51.568;5.048;2023-08-06T13:08:29;5.20;;;0.90;;
69534;SDS011;56754;51.568;5.048;2023-08-06T13:10:54;2.70;;;0.80;;
69534;SDS011;56754;51.568;5.048;2023-08-06T13:13:19;3.00;;;0.70;;
69534;SDS011;56754;51.568;5.048;2023-08-06T13:15:44;3.13;;;0.70;;
69534;SDS011;56754;51.568;5.048;2023-08-06T13:18:10;3.08;;;0.88;;
69534;SDS011;56754;51.568;5.048;2023-08-06T13:20:38;3.13;;;0.80;;
69534;SDS011;56754;51.568;5.048;2023-08-06T13:23:04;3.23;;;0.60;;
69534;SDS011;56754;51.568;5.048;2023-08-06T13:25:29;2.58;;;0.80;;
69534;SDS011;56754;51.568;5.048;2023-08-06T13:27:54;4.33;;;0.90;;
69534;SDS011;56754;51.568;5.048;2023-08-06T13:30:20;2.73;;;0.70;;
69534;SDS011;56754;51.568;5.048;2023-08-06T13:32:45;3.03;;;0.80;;
69534;SDS011;56754;51.568;5.048;2023-08-06T13:35:11;2.50;;;0.73;;
69534;SDS011;56754;51.568;5.048;2023-08-06T13:37:36;3.67;;;0.90;;
69534;SDS011;56754;51.568;5.048;2023-08-06T13:40:02;2.63;;;0.60;;
69534;SDS011;56754;51.568;5.048;2023-08-06T13:42:27;2.30;;;0.70;;
69534;SDS011;56754;51.568;5.048;2023-08-06T13:44:52;3.83;;;0.80;;
69534;SDS011;56754;51.568;5.048;2023-08-06T13:47:17;4.43;;;0.90;;
69534;SDS011;56754;51.568;5.048;2023-08-06T13:49:43;3.03;;;0.80;;
69534;SDS011;56754;51.568;5.048;2023-08-06T13:52:08;3.70;;;0.80;;
69534;SDS011;56754;51.568;5.048;2023-08-06T13:54:34;4.83;;;0.90;;
69534;SDS011;56754;51.568;5.048;2023-08-06T13:56:59;2.57;;;0.73;;
69534;SDS011;56754;51.568;5.048;2023-08-06T13:59:24;2.33;;;0.60;;
69534;SDS011;56754;51.568;5.048;2023-08-06T14:01:50;2.47;;;0.70;;
69534;SDS011;56754;51.568;5.048;2023-08-06T14:04:15;2.47;;;0.63;;
69534;SDS011;56754;51.568;5.048;2023-08-06T14:06:40;3.73;;;0.70;;
69534;SDS011;56754;51.568;5.048;2023-08-06T14:09:06;2.13;;;0.70;;
69534;SDS011;56754;51.568;5.048;2023-08-06T14:11:31;2.90;;;0.80;;
69534;SDS011;56754;51.568;5.048;2023-08-06T14:13:56;3.30;;;0.80;;
69534;SDS011;56754;51.568;5.048;2023-08-06T14:16:22;2.30;;;0.83;;
69534;SDS011;56754;51.568;5.048;2023-08-06T14:18:47;2.17;;;0.60;;
69534;SDS011;56754;51.568;5.048;2023-08-06T14:21:13;3.00;;;0.70;;
69534;SDS011;56754;51.568;5.048;2023-08-06T14:23:38;3.87;;;0.60;;
69534;SDS011;56754;51.568;5.048;2023-08-06T14:26:03;2.10;;;0.50;;
69534;SDS011;56754;51.568;5.048;2023-08-06T14:28:28;3.27;;;0.67;;
69534;SDS011;56754;51.568;5.048;2023-08-06T14:30:54;2.50;;;0.50;;
69534;SDS011;56754;51.568;5.048;2023-08-06T14:33:20;2.45;;;0.57;;
69534;SDS011;56754;51.568;5.048;2023-08-06T14:35:45;3.70;;;0.70;;
69534;SDS011;56754;51.568;5.048;2023-08-06T14:38:11;3.50;;;0.73;;
69534;SDS011;56754;51.568;5.048;2023-08-06T14:40:36;4.47;;;0.80;;
69534;SDS011;56754;51.568;5.048;2023-08-06T14:43:01;2.77;;;0.50;;
69534;SDS011;56754;51.568;5.048;2023-08-06T14:45:27;3.90;;;0.60;;
69534;SDS011;56754;51.568;5.048;2023-08-06T14:47:52;4.17;;;0.60;;
69534;SDS011;56754;51.568;5.048;2023-08-06T14:50:17;4.93;;;0.70;;
69534;SDS011;56754;51.568;5.048;2023-08-06T14:52:42;2.53;;;0.30;;
69534;SDS011;56754;51.568;5.048;2023-08-06T14:55:08;2.07;;;0.37;;